Weather at West Plains Municipal Airport

Public forecast

Using degrees Fahrenheit for public forecast. Weather courtesy of forecast.io.

Current aviation weather report (METAR) for West Plains Municipal Airport

Retrieved 2021/01/22 06:53 UTC (1 hour ago):

KUNO 220653Z AUTO 36003KT 10SM CLR 06/M02 A2998 RMK AO2 SLP151 T00611017

Closest aviation forecast (TAF) to West Plains Municipal Airport

Closest forecast is Ozark Regional Airport, 41.0 nm (76.0 km) SW. Retrieved 2021/01/22 06:42 UTC (1 hour ago):

TAF KBPK 220540Z 2206/2306 VRB05KT P6SM SCT050 BKN250 FM221200 03009KT P6SM OVC250 FM221800 VRB06KT P6SM SCT250